sensor_id;sensor_type;location;lat;lon;timestamp;P1;P2;P0
57884;PMS5003;43703;51.060;-0.086;2022-12-16T00:01:33;45;39;
57884;PMS5003;43703;51.060;-0.086;2022-12-16T00:03:58;44;38;
57884;PMS5003;43703;51.060;-0.086;2022-12-16T00:06:24;41;40;
57884;PMS5003;43703;51.060;-0.086;2022-12-16T00:08:48;51;38;
57884;PMS5003;43703;51.060;-0.086;2022-12-16T00:11:14;44;41;
57884;PMS5003;43703;51.060;-0.086;2022-12-16T00:13:39;41;39;
57884;PMS5003;43703;51.060;-0.086;2022-12-16T00:16:05;46;37;
57884;PMS5003;43703;51.060;-0.086;2022-12-16T00:18:30;37;35;
57884;PMS5003;43703;51.060;-0.086;2022-12-16T00:20:55;39;39;
57884;PMS5003;43703;51.060;-0.086;2022-12-16T00:23:21;41;34;
57884;PMS5003;43703;51.060;-0.086;2022-12-16T00:25:47;44;44;
57884;PMS5003;43703;51.060;-0.086;2022-12-16T00:28:13;44;41;
57884;PMS5003;43703;51.060;-0.086;2022-12-16T00:30:37;42;37;
57884;PMS5003;43703;51.060;-0.086;2022-12-16T00:33:03;42;39;
57884;PMS5003;43703;51.060;-0.086;2022-12-16T00:35:29;42;40;
57884;PMS5003;43703;51.060;-0.086;2022-12-16T00:37:54;36;32;
57884;PMS5003;43703;51.060;-0.086;2022-12-16T00:40:19;39;37;
57884;PMS5003;43703;51.060;-0.086;2022-12-16T00:42:45;43;42;
57884;PMS5003;43703;51.060;-0.086;2022-12-16T00:45:10;40;37;
57884;PMS5003;43703;51.060;-0.086;2022-12-16T00:47:36;38;37;
57884;PMS5003;43703;51.060;-0.086;2022-12-16T00:50:01;35;35;
57884;PMS5003;43703;51.060;-0.086;2022-12-16T00:52:27;37;37;
57884;PMS5003;43703;51.060;-0.086;2022-12-16T00:54:52;42;42;
57884;PMS5003;43703;51.060;-0.086;2022-12-16T00:57:18;32;31;
57884;PMS5003;43703;51.060;-0.086;2022-12-16T00:59:43;42;37;
57884;PMS5003;43703;51.060;-0.086;2022-12-16T01:02:09;39;39;
57884;PMS5003;43703;51.060;-0.086;2022-12-16T01:04:34;38;33;
57884;PMS5003;43703;51.060;-0.086;2022-12-16T01:06:59;36;34;
57884;PMS5003;43703;51.060;-0.086;2022-12-16T01:09:25;36;36;
57884;PMS5003;43703;51.060;-0.086;2022-12-16T01:11:51;35;31;
57884;PMS5003;43703;51.060;-0.086;2022-12-16T01:14:16;38;34;
57884;PMS5003;43703;51.060;-0.086;2022-12-16T01:16:41;36;35;
57884;PMS5003;43703;51.060;-0.086;2022-12-16T01:19:07;36;36;
57884;PMS5003;43703;51.060;-0.086;2022-12-16T01:21:32;35;35;
57884;PMS5003;43703;51.060;-0.086;2022-12-16T01:23:58;38;36;
57884;PMS5003;43703;51.060;-0.086;2022-12-16T01:26:23;33;30;
57884;PMS5003;43703;51.060;-0.086;2022-12-16T01:28:48;35;32;
57884;PMS5003;43703;51.060;-0.086;2022-12-16T01:31:14;35;34;
57884;PMS5003;43703;51.060;-0.086;2022-12-16T01:33:39;37;34;
57884;PMS5003;43703;51.060;-0.086;2022-12-16T01:36:06;38;38;
57884;PMS5003;43703;51.060;-0.086;2022-12-16T01:38:31;33;32;
57884;PMS5003;43703;51.060;-0.086;2022-12-16T01:40:56;39;36;
57884;PMS5003;43703;51.060;-0.086;2022-12-16T01:43:23;43;40;
57884;PMS5003;43703;51.060;-0.086;2022-12-16T01:45:48;33;28;
57884;PMS5003;43703;51.060;-0.086;2022-12-16T01:48:15;35;32;
57884;PMS5003;43703;51.060;-0.086;2022-12-16T01:50:39;38;35;
57884;PMS5003;43703;51.060;-0.086;2022-12-16T01:53:04;38;33;
57884;PMS5003;43703;51.060;-0.086;2022-12-16T01:55:31;38;36;
57884;PMS5003;43703;51.060;-0.086;2022-12-16T01:57:56;35;34;
57884;PMS5003;43703;51.060;-0.086;2022-12-16T02:00:20;36;36;
57884;PMS5003;43703;51.060;-0.086;2022-12-16T02:02:46;37;32;
57884;PMS5003;43703;51.060;-0.086;2022-12-16T02:05:13;38;35;
57884;PMS5003;43703;51.060;-0.086;2022-12-16T02:07:37;34;32;
57884;PMS5003;43703;51.060;-0.086;2022-12-16T02:10:03;39;37;
57884;PMS5003;43703;51.060;-0.086;2022-12-16T02:12:28;40;38;
57884;PMS5003;43703;51.060;-0.086;2022-12-16T02:14:58;39;35;
57884;PMS5003;43703;51.060;-0.086;2022-12-16T02:17:19;33;33;
57884;PMS5003;43703;51.060;-0.086;2022-12-16T02:19:52;36;30;
57884;PMS5003;43703;51.060;-0.086;2022-12-16T02:22:13;42;36;
57884;PMS5003;43703;51.060;-0.086;2022-12-16T02:24:41;42;36;
57884;PMS5003;43703;51.060;-0.086;2022-12-16T02:29:32;41;35;
57884;PMS5003;43703;51.060;-0.086;2022-12-16T02:31:52;32;32;
57884;PMS5003;43703;51.060;-0.086;2022-12-16T02:34:17;35;32;
57884;PMS5003;43703;51.060;-0.086;2022-12-16T02:36:46;37;28;
57884;PMS5003;43703;51.060;-0.086;2022-12-16T02:39:09;32;32;
57884;PMS5003;43703;51.060;-0.086;2022-12-16T02:41:35;37;35;
57884;PMS5003;43703;51.060;-0.086;2022-12-16T02:44:00;38;33;
57884;PMS5003;43703;51.060;-0.086;2022-12-16T02:46:24;36;35;
57884;PMS5003;43703;51.060;-0.086;2022-12-16T02:48:49;36;33;
57884;PMS5003;43703;51.060;-0.086;2022-12-16T02:51:15;34;33;
57884;PMS5003;43703;51.060;-0.086;2022-12-16T02:53:40;43;38;
57884;PMS5003;43703;51.060;-0.086;2022-12-16T02:56:08;43;38;
57884;PMS5003;43703;51.060;-0.086;2022-12-16T02:58:32;37;35;
57884;PMS5003;43703;51.060;-0.086;2022-12-16T03:00:59;37;36;
57884;PMS5003;43703;51.060;-0.086;2022-12-16T03:03:23;40;38;
57884;PMS5003;43703;51.060;-0.086;2022-12-16T03:08:16;40;33;
57884;PMS5003;43703;51.060;-0.086;2022-12-16T03:10:40;37;35;
57884;PMS5003;43703;51.060;-0.086;2022-12-16T03:13:05;34;33;
57884;PMS5003;43703;51.060;-0.086;2022-12-16T03:15:31;36;34;
57884;PMS5003;43703;51.060;-0.086;2022-12-16T03:17:56;39;35;
57884;PMS5003;43703;51.060;-0.086;2022-12-16T03:20:22;35;32;
57884;PMS5003;43703;51.060;-0.086;2022-12-16T03:22:47;34;33;
57884;PMS5003;43703;51.060;-0.086;2022-12-16T03:25:12;38;33;
57884;PMS5003;43703;51.060;-0.086;2022-12-16T03:27:38;38;34;
57884;PMS5003;43703;51.060;-0.086;2022-12-16T03:30:04;39;35;
57884;PMS5003;43703;51.060;-0.086;2022-12-16T03:32:30;35;31;
57884;PMS5003;43703;51.060;-0.086;2022-12-16T03:34:55;46;42;
57884;PMS5003;43703;51.060;-0.086;2022-12-16T03:37:19;32;32;
57884;PMS5003;43703;51.060;-0.086;2022-12-16T03:39:45;35;33;
57884;PMS5003;43703;51.060;-0.086;2022-12-16T03:42:10;37;34;
57884;PMS5003;43703;51.060;-0.086;2022-12-16T03:44:35;40;34;
57884;PMS5003;43703;51.060;-0.086;2022-12-16T03:47:00;35;31;
57884;PMS5003;43703;51.060;-0.086;2022-12-16T03:49:26;34;33;
57884;PMS5003;43703;51.060;-0.086;2022-12-16T03:51:52;41;35;
57884;PMS5003;43703;51.060;-0.086;2022-12-16T03:54:17;37;35;
57884;PMS5003;43703;51.060;-0.086;2022-12-16T03:56:43;33;31;
57884;PMS5003;43703;51.060;-0.086;2022-12-16T03:59:09;39;38;
57884;PMS5003;43703;51.060;-0.086;2022-12-16T04:01:34;35;32;
57884;PMS5003;43703;51.060;-0.086;2022-12-16T04:04:00;41;35;
57884;PMS5003;43703;51.060;-0.086;2022-12-16T04:06:25;36;35;
57884;PMS5003;43703;51.060;-0.086;2022-12-16T04:08:50;39;36;
57884;PMS5003;43703;51.060;-0.086;2022-12-16T04:11:16;33;29;
57884;PMS5003;43703;51.060;-0.086;2022-12-16T04:13:41;36;34;
57884;PMS5003;43703;51.060;-0.086;2022-12-16T04:16:07;39;38;
57884;PMS5003;43703;51.060;-0.086;2022-12-16T04:18:32;39;32;
57884;PMS5003;43703;51.060;-0.086;2022-12-16T04:20:58;35;33;
57884;PMS5003;43703;51.060;-0.086;2022-12-16T04:23:23;32;31;
57884;PMS5003;43703;51.060;-0.086;2022-12-16T04:25:48;37;34;
57884;PMS5003;43703;51.060;-0.086;2022-12-16T04:28:13;39;33;
57884;PMS5003;43703;51.060;-0.086;2022-12-16T04:30:39;39;31;
57884;PMS5003;43703;51.060;-0.086;2022-12-16T04:33:04;36;31;
57884;PMS5003;43703;51.060;-0.086;2022-12-16T04:35:29;34;31;
57884;PMS5003;43703;51.060;-0.086;2022-12-16T04:37:55;34;32;
57884;PMS5003;43703;51.060;-0.086;2022-12-16T04:40:20;33;30;
57884;PMS5003;43703;51.060;-0.086;2022-12-16T04:42:46;34;34;
57884;PMS5003;43703;51.060;-0.086;2022-12-16T04:45:11;33;32;
57884;PMS5003;43703;51.060;-0.086;2022-12-16T04:47:36;44;40;
57884;PMS5003;43703;51.060;-0.086;2022-12-16T04:50:01;38;36;
57884;PMS5003;43703;51.060;-0.086;2022-12-16T04:52:26;34;30;
57884;PMS5003;43703;51.060;-0.086;2022-12-16T04:54:52;35;34;
57884;PMS5003;43703;51.060;-0.086;2022-12-16T04:57:17;35;33;
57884;PMS5003;43703;51.060;-0.086;2022-12-16T04:59:43;31;30;
57884;PMS5003;43703;51.060;-0.086;2022-12-16T05:02:08;36;27;
57884;PMS5003;43703;51.060;-0.086;2022-12-16T05:04:34;37;34;
57884;PMS5003;43703;51.060;-0.086;2022-12-16T05:06:59;32;32;
57884;PMS5003;43703;51.060;-0.086;2022-12-16T05:09:24;39;33;
57884;PMS5003;43703;51.060;-0.086;2022-12-16T05:11:50;37;33;
57884;PMS5003;43703;51.060;-0.086;2022-12-16T05:14:16;41;34;
57884;PMS5003;43703;51.060;-0.086;2022-12-16T05:16:42;37;37;
57884;PMS5003;43703;51.060;-0.086;2022-12-16T05:19:07;34;33;
57884;PMS5003;43703;51.060;-0.086;2022-12-16T05:21:32;39;37;
57884;PMS5003;43703;51.060;-0.086;2022-12-16T05:23:57;34;32;
57884;PMS5003;43703;51.060;-0.086;2022-12-16T05:26:23;35;31;
57884;PMS5003;43703;51.060;-0.086;2022-12-16T05:28:49;39;37;
57884;PMS5003;43703;51.060;-0.086;2022-12-16T05:31:14;36;36;
57884;PMS5003;43703;51.060;-0.086;2022-12-16T05:33:40;35;34;
57884;PMS5003;43703;51.060;-0.086;2022-12-16T05:36:05;42;37;
57884;PMS5003;43703;51.060;-0.086;2022-12-16T05:38:31;42;40;
57884;PMS5003;43703;51.060;-0.086;2022-12-16T05:40:56;38;36;
57884;PMS5003;43703;51.060;-0.086;2022-12-16T05:43:21;37;35;
57884;PMS5003;43703;51.060;-0.086;2022-12-16T05:45:46;43;41;
57884;PMS5003;43703;51.060;-0.086;2022-12-16T05:48:12;37;34;
57884;PMS5003;43703;51.060;-0.086;2022-12-16T05:50:37;36;34;
57884;PMS5003;43703;51.060;-0.086;2022-12-16T05:53:03;34;33;
57884;PMS5003;43703;51.060;-0.086;2022-12-16T05:55:28;43;33;
57884;PMS5003;43703;51.060;-0.086;2022-12-16T05:57:53;44;38;
57884;PMS5003;43703;51.060;-0.086;2022-12-16T06:00:19;41;34;
57884;PMS5003;43703;51.060;-0.086;2022-12-16T06:02:44;44;42;
57884;PMS5003;43703;51.060;-0.086;2022-12-16T06:05:10;37;35;
57884;PMS5003;43703;51.060;-0.086;2022-12-16T06:07:36;45;39;
57884;PMS5003;43703;51.060;-0.086;2022-12-16T06:10:01;48;41;
57884;PMS5003;43703;51.060;-0.086;2022-12-16T06:12:27;44;42;
57884;PMS5003;43703;51.060;-0.086;2022-12-16T06:14:53;43;37;
57884;PMS5003;43703;51.060;-0.086;2022-12-16T06:17:19;36;33;
57884;PMS5003;43703;51.060;-0.086;2022-12-16T06:19:44;43;38;
57884;PMS5003;43703;51.060;-0.086;2022-12-16T06:22:10;40;36;
57884;PMS5003;43703;51.060;-0.086;2022-12-16T06:24:35;40;35;
57884;PMS5003;43703;51.060;-0.086;2022-12-16T06:27:00;51;41;
57884;PMS5003;43703;51.060;-0.086;2022-12-16T06:29:25;43;41;
57884;PMS5003;43703;51.060;-0.086;2022-12-16T06:31:51;43;38;
57884;PMS5003;43703;51.060;-0.086;2022-12-16T06:34:16;36;34;
57884;PMS5003;43703;51.060;-0.086;2022-12-16T06:36:41;37;35;
57884;PMS5003;43703;51.060;-0.086;2022-12-16T06:39:07;42;38;
57884;PMS5003;43703;51.060;-0.086;2022-12-16T06:41:32;43;41;
57884;PMS5003;43703;51.060;-0.086;2022-12-16T06:43:58;37;31;
57884;PMS5003;43703;51.060;-0.086;2022-12-16T06:46:24;45;40;
57884;PMS5003;43703;51.060;-0.086;2022-12-16T06:48:50;43;37;
57884;PMS5003;43703;51.060;-0.086;2022-12-16T06:51:15;43;39;
57884;PMS5003;43703;51.060;-0.086;2022-12-16T06:53:41;40;38;
57884;PMS5003;43703;51.060;-0.086;2022-12-16T06:56:06;43;40;
57884;PMS5003;43703;51.060;-0.086;2022-12-16T06:58:32;35;33;
57884;PMS5003;43703;51.060;-0.086;2022-12-16T07:00:57;36;35;
57884;PMS5003;43703;51.060;-0.086;2022-12-16T07:03:23;38;35;
57884;PMS5003;43703;51.060;-0.086;2022-12-16T07:05:51;38;34;
57884;PMS5003;43703;51.060;-0.086;2022-12-16T07:08:14;34;34;
57884;PMS5003;43703;51.060;-0.086;2022-12-16T07:10:39;36;35;
57884;PMS5003;43703;51.060;-0.086;2022-12-16T07:13:05;41;37;
57884;PMS5003;43703;51.060;-0.086;2022-12-16T07:15:31;41;37;
57884;PMS5003;43703;51.060;-0.086;2022-12-16T07:17:56;49;43;
57884;PMS5003;43703;51.060;-0.086;2022-12-16T07:20:22;42;41;
57884;PMS5003;43703;51.060;-0.086;2022-12-16T07:22:47;47;44;
57884;PMS5003;43703;51.060;-0.086;2022-12-16T07:25:12;36;35;
57884;PMS5003;43703;51.060;-0.086;2022-12-16T07:27:38;45;41;
57884;PMS5003;43703;51.060;-0.086;2022-12-16T07:30:04;42;39;
57884;PMS5003;43703;51.060;-0.086;2022-12-16T07:32:29;43;36;
57884;PMS5003;43703;51.060;-0.086;2022-12-16T07:34:54;45;42;
57884;PMS5003;43703;51.060;-0.086;2022-12-16T07:37:20;37;36;
57884;PMS5003;43703;51.060;-0.086;2022-12-16T07:39:45;44;37;
57884;PMS5003;43703;51.060;-0.086;2022-12-16T07:42:11;41;36;
57884;PMS5003;43703;51.060;-0.086;2022-12-16T07:44:36;38;36;
57884;PMS5003;43703;51.060;-0.086;2022-12-16T07:47:02;40;36;
57884;PMS5003;43703;51.060;-0.086;2022-12-16T07:49:27;39;37;
57884;PMS5003;43703;51.060;-0.086;2022-12-16T07:51:52;41;36;
57884;PMS5003;43703;51.060;-0.086;2022-12-16T07:54:17;41;40;
57884;PMS5003;43703;51.060;-0.086;2022-12-16T07:56:43;34;34;
57884;PMS5003;43703;51.060;-0.086;2022-12-16T07:59:08;39;35;
57884;PMS5003;43703;51.060;-0.086;2022-12-16T08:01:34;38;36;
57884;PMS5003;43703;51.060;-0.086;2022-12-16T08:03:59;38;36;
57884;PMS5003;43703;51.060;-0.086;2022-12-16T08:06:25;35;34;
57884;PMS5003;43703;51.060;-0.086;2022-12-16T08:08:50;34;32;
57884;PMS5003;43703;51.060;-0.086;2022-12-16T08:11:15;41;37;
57884;PMS5003;43703;51.060;-0.086;2022-12-16T08:13:41;38;37;
57884;PMS5003;43703;51.060;-0.086;2022-12-16T08:16:06;42;36;
57884;PMS5003;43703;51.060;-0.086;2022-12-16T08:18:32;34;34;
57884;PMS5003;43703;51.060;-0.086;2022-12-16T08:20:57;43;37;
57884;PMS5003;43703;51.060;-0.086;2022-12-16T08:23:23;33;32;
57884;PMS5003;43703;51.060;-0.086;2022-12-16T08:25:48;35;35;
57884;PMS5003;43703;51.060;-0.086;2022-12-16T08:28:13;34;30;
57884;PMS5003;43703;51.060;-0.086;2022-12-16T08:30:39;34;34;
57884;PMS5003;43703;51.060;-0.086;2022-12-16T08:33:04;51;42;
57884;PMS5003;43703;51.060;-0.086;2022-12-16T08:35:29;40;38;
57884;PMS5003;43703;51.060;-0.086;2022-12-16T08:37:55;40;36;
57884;PMS5003;43703;51.060;-0.086;2022-12-16T08:40:20;38;36;
57884;PMS5003;43703;51.060;-0.086;2022-12-16T08:42:46;37;32;
57884;PMS5003;43703;51.060;-0.086;2022-12-16T08:45:11;36;36;
57884;PMS5003;43703;51.060;-0.086;2022-12-16T08:47:36;42;41;
57884;PMS5003;43703;51.060;-0.086;2022-12-16T08:50:02;39;39;
57884;PMS5003;43703;51.060;-0.086;2022-12-16T08:52:27;39;39;
57884;PMS5003;43703;51.060;-0.086;2022-12-16T08:54:53;41;40;
57884;PMS5003;43703;51.060;-0.086;2022-12-16T08:57:18;43;40;
57884;PMS5003;43703;51.060;-0.086;2022-12-16T08:59:44;43;40;
57884;PMS5003;43703;51.060;-0.086;2022-12-16T09:02:09;49;42;
57884;PMS5003;43703;51.060;-0.086;2022-12-16T09:04:34;38;35;
57884;PMS5003;43703;51.060;-0.086;2022-12-16T09:07:00;40;37;
57884;PMS5003;43703;51.060;-0.086;2022-12-16T09:09:25;42;38;
57884;PMS5003;43703;51.060;-0.086;2022-12-16T09:11:51;39;35;
57884;PMS5003;43703;51.060;-0.086;2022-12-16T09:14:16;45;44;
57884;PMS5003;43703;51.060;-0.086;2022-12-16T09:16:41;45;43;
57884;PMS5003;43703;51.060;-0.086;2022-12-16T09:19:06;44;43;
57884;PMS5003;43703;51.060;-0.086;2022-12-16T09:21:32;46;44;
57884;PMS5003;43703;51.060;-0.086;2022-12-16T09:23:57;45;43;
57884;PMS5003;43703;51.060;-0.086;2022-12-16T09:26:23;44;42;
57884;PMS5003;43703;51.060;-0.086;2022-12-16T09:28:48;46;44;
57884;PMS5003;43703;51.060;-0.086;2022-12-16T09:31:13;53;48;
57884;PMS5003;43703;51.060;-0.086;2022-12-16T09:33:39;57;54;
57884;PMS5003;43703;51.060;-0.086;2022-12-16T09:36:04;51;46;
57884;PMS5003;43703;51.060;-0.086;2022-12-16T09:38:29;43;43;
57884;PMS5003;43703;51.060;-0.086;2022-12-16T09:40:55;45;43;
57884;PMS5003;43703;51.060;-0.086;2022-12-16T09:43:24;42;37;
57884;PMS5003;43703;51.060;-0.086;2022-12-16T09:45:47;42;41;
57884;PMS5003;43703;51.060;-0.086;2022-12-16T09:48:11;45;43;
57884;PMS5003;43703;51.060;-0.086;2022-12-16T09:50:37;43;39;
57884;PMS5003;43703;51.060;-0.086;2022-12-16T09:53:02;44;41;
57884;PMS5003;43703;51.060;-0.086;2022-12-16T09:55:28;38;36;
57884;PMS5003;43703;51.060;-0.086;2022-12-16T09:57:52;42;39;
57884;PMS5003;43703;51.060;-0.086;2022-12-16T10:00:19;36;33;
57884;PMS5003;43703;51.060;-0.086;2022-12-16T10:02:43;36;36;
57884;PMS5003;43703;51.060;-0.086;2022-12-16T10:05:09;36;34;
57884;PMS5003;43703;51.060;-0.086;2022-12-16T10:07:34;39;34;
57884;PMS5003;43703;51.060;-0.086;2022-12-16T10:10:02;43;38;
57884;PMS5003;43703;51.060;-0.086;2022-12-16T10:12:29;38;34;
57884;PMS5003;43703;51.060;-0.086;2022-12-16T10:14:59;42;38;
57884;PMS5003;43703;51.060;-0.086;2022-12-16T10:17:17;36;36;
57884;PMS5003;43703;51.060;-0.086;2022-12-16T10:19:43;34;33;
57884;PMS5003;43703;51.060;-0.086;2022-12-16T10:22:08;36;35;
57884;PMS5003;43703;51.060;-0.086;2022-12-16T10:24:35;37;34;
57884;PMS5003;43703;51.060;-0.086;2022-12-16T10:27:00;35;33;
57884;PMS5003;43703;51.060;-0.086;2022-12-16T10:29:24;39;37;
57884;PMS5003;43703;51.060;-0.086;2022-12-16T10:31:49;36;34;
57884;PMS5003;43703;51.060;-0.086;2022-12-16T10:34:16;37;35;
57884;PMS5003;43703;51.060;-0.086;2022-12-16T10:36:40;30;30;
57884;PMS5003;43703;51.060;-0.086;2022-12-16T10:39:12;33;32;
57884;PMS5003;43703;51.060;-0.086;2022-12-16T10:41:32;43;38;
57884;PMS5003;43703;51.060;-0.086;2022-12-16T10:44:00;39;38;
57884;PMS5003;43703;51.060;-0.086;2022-12-16T10:46:24;30;29;
57884;PMS5003;43703;51.060;-0.086;2022-12-16T10:48:49;37;33;
57884;PMS5003;43703;51.060;-0.086;2022-12-16T10:51:15;31;29;
57884;PMS5003;43703;51.060;-0.086;2022-12-16T10:53:39;33;29;
57884;PMS5003;43703;51.060;-0.086;2022-12-16T10:56:10;26;25;
57884;PMS5003;43703;51.060;-0.086;2022-12-16T10:58:32;25;25;
57884;PMS5003;43703;51.060;-0.086;2022-12-16T11:00:55;33;28;
57884;PMS5003;43703;51.060;-0.086;2022-12-16T11:03:21;32;29;
57884;PMS5003;43703;51.060;-0.086;2022-12-16T11:05:46;27;26;
57884;PMS5003;43703;51.060;-0.086;2022-12-16T11:10:37;30;29;
57884;PMS5003;43703;51.060;-0.086;2022-12-16T11:15:27;27;27;
57884;PMS5003;43703;51.060;-0.086;2022-12-16T11:20:18;29;25;
57884;PMS5003;43703;51.060;-0.086;2022-12-16T11:22:43;26;25;
57884;PMS5003;43703;51.060;-0.086;2022-12-16T11:25:15;31;26;
57884;PMS5003;43703;51.060;-0.086;2022-12-16T11:27:34;26;26;
57884;PMS5003;43703;51.060;-0.086;2022-12-16T11:30:00;33;30;
57884;PMS5003;43703;51.060;-0.086;2022-12-16T11:32:25;29;29;
57884;PMS5003;43703;51.060;-0.086;2022-12-16T11:34:51;30;28;
57884;PMS5003;43703;51.060;-0.086;2022-12-16T11:37:16;27;26;
57884;PMS5003;43703;51.060;-0.086;2022-12-16T11:39:41;26;25;
57884;PMS5003;43703;51.060;-0.086;2022-12-16T11:42:09;23;23;
57884;PMS5003;43703;51.060;-0.086;2022-12-16T11:44:33;26;24;
57884;PMS5003;43703;51.060;-0.086;2022-12-16T11:46:57;24;23;
57884;PMS5003;43703;51.060;-0.086;2022-12-16T11:49:25;27;23;
57884;PMS5003;43703;51.060;-0.086;2022-12-16T11:51:51;19;19;
57884;PMS5003;43703;51.060;-0.086;2022-12-16T11:54:16;23;20;
57884;PMS5003;43703;51.060;-0.086;2022-12-16T11:56:41;23;22;
57884;PMS5003;43703;51.060;-0.086;2022-12-16T11:59:08;25;22;
57884;PMS5003;43703;51.060;-0.086;2022-12-16T12:01:32;25;23;
57884;PMS5003;43703;51.060;-0.086;2022-12-16T12:03:56;24;21;
57884;PMS5003;43703;51.060;-0.086;2022-12-16T12:06:22;26;25;
57884;PMS5003;43703;51.060;-0.086;2022-12-16T12:08:48;25;22;
57884;PMS5003;43703;51.060;-0.086;2022-12-16T12:11:14;21;18;
57884;PMS5003;43703;51.060;-0.086;2022-12-16T12:13:41;25;25;
57884;PMS5003;43703;51.060;-0.086;2022-12-16T12:16:04;27;26;
57884;PMS5003;43703;51.060;-0.086;2022-12-16T12:18:32;27;27;
57884;PMS5003;43703;51.060;-0.086;2022-12-16T12:20:55;26;26;
57884;PMS5003;43703;51.060;-0.086;2022-12-16T12:23:21;25;24;
57884;PMS5003;43703;51.060;-0.086;2022-12-16T12:25:46;32;26;
57884;PMS5003;43703;51.060;-0.086;2022-12-16T12:28:13;29;27;
57884;PMS5003;43703;51.060;-0.086;2022-12-16T12:30:36;26;26;
57884;PMS5003;43703;51.060;-0.086;2022-12-16T12:33:05;28;28;
57884;PMS5003;43703;51.060;-0.086;2022-12-16T12:35:41;31;30;
57884;PMS5003;43703;51.060;-0.086;2022-12-16T12:37:53;36;34;
57884;PMS5003;43703;51.060;-0.086;2022-12-16T12:40:21;31;29;
57884;PMS5003;43703;51.060;-0.086;2022-12-16T12:42:44;32;29;
57884;PMS5003;43703;51.060;-0.086;2022-12-16T12:47:34;34;29;
57884;PMS5003;43703;51.060;-0.086;2022-12-16T12:50:02;28;26;
57884;PMS5003;43703;51.060;-0.086;2022-12-16T12:52:29;30;25;
57884;PMS5003;43703;51.060;-0.086;2022-12-16T12:54:51;30;29;
57884;PMS5003;43703;51.060;-0.086;2022-12-16T12:57:16;31;30;
57884;PMS5003;43703;51.060;-0.086;2022-12-16T12:59:44;37;34;
57884;PMS5003;43703;51.060;-0.086;2022-12-16T13:02:08;37;33;
57884;PMS5003;43703;51.060;-0.086;2022-12-16T13:04:32;39;36;
57884;PMS5003;43703;51.060;-0.086;2022-12-16T13:06:57;37;36;
57884;PMS5003;43703;51.060;-0.086;2022-12-16T13:09:24;39;37;
57884;PMS5003;43703;51.060;-0.086;2022-12-16T13:23:56;37;34;
57884;PMS5003;43703;51.060;-0.086;2022-12-16T13:26:22;35;33;
57884;PMS5003;43703;51.060;-0.086;2022-12-16T13:28:48;31;28;
57884;PMS5003;43703;51.060;-0.086;2022-12-16T13:31:12;36;36;
57884;PMS5003;43703;51.060;-0.086;2022-12-16T13:33:37;33;31;
57884;PMS5003;43703;51.060;-0.086;2022-12-16T13:36:04;35;32;
57884;PMS5003;43703;51.060;-0.086;2022-12-16T13:38:29;33;31;
57884;PMS5003;43703;51.060;-0.086;2022-12-16T13:40:55;32;30;
57884;PMS5003;43703;51.060;-0.086;2022-12-16T13:50:36;33;32;
57884;PMS5003;43703;51.060;-0.086;2022-12-16T13:53:01;35;32;
57884;PMS5003;43703;51.060;-0.086;2022-12-16T13:55:27;34;31;
57884;PMS5003;43703;51.060;-0.086;2022-12-16T13:58:00;31;28;
57884;PMS5003;43703;51.060;-0.086;2022-12-16T14:00:18;36;32;
57884;PMS5003;43703;51.060;-0.086;2022-12-16T14:02:42;32;28;
57884;PMS5003;43703;51.060;-0.086;2022-12-16T14:05:13;30;29;
57884;PMS5003;43703;51.060;-0.086;2022-12-16T14:07:33;31;30;
57884;PMS5003;43703;51.060;-0.086;2022-12-16T14:09:59;32;32;
57884;PMS5003;43703;51.060;-0.086;2022-12-16T14:14:50;32;29;
57884;PMS5003;43703;51.060;-0.086;2022-12-16T14:17:16;40;33;
57884;PMS5003;43703;51.060;-0.086;2022-12-16T14:19:44;35;33;
57884;PMS5003;43703;51.060;-0.086;2022-12-16T14:22:07;38;35;
57884;PMS5003;43703;51.060;-0.086;2022-12-16T14:24:31;37;36;
57884;PMS5003;43703;51.060;-0.086;2022-12-16T14:26:56;29;28;
57884;PMS5003;43703;51.060;-0.086;2022-12-16T14:29:22;34;34;
57884;PMS5003;43703;51.060;-0.086;2022-12-16T14:31:47;32;32;
57884;PMS5003;43703;51.060;-0.086;2022-12-16T14:34:14;34;33;
57884;PMS5003;43703;51.060;-0.086;2022-12-16T14:36:38;36;33;
57884;PMS5003;43703;51.060;-0.086;2022-12-16T14:39:08;36;35;
57884;PMS5003;43703;51.060;-0.086;2022-12-16T14:41:29;34;32;
57884;PMS5003;43703;51.060;-0.086;2022-12-16T14:43:54;31;30;
57884;PMS5003;43703;51.060;-0.086;2022-12-16T14:46:23;34;33;
57884;PMS5003;43703;51.060;-0.086;2022-12-16T14:48:46;38;36;
57884;PMS5003;43703;51.060;-0.086;2022-12-16T14:51:15;38;34;
57884;PMS5003;43703;51.060;-0.086;2022-12-16T14:53:36;32;31;
57884;PMS5003;43703;51.060;-0.086;2022-12-16T14:58:27;36;32;
57884;PMS5003;43703;51.060;-0.086;2022-12-16T15:00:52;33;33;
57884;PMS5003;43703;51.060;-0.086;2022-12-16T15:03:20;35;33;
57884;PMS5003;43703;51.060;-0.086;2022-12-16T15:05:43;36;32;
57884;PMS5003;43703;51.060;-0.086;2022-12-16T15:08:08;37;34;
57884;PMS5003;43703;51.060;-0.086;2022-12-16T15:10:34;35;34;
57884;PMS5003;43703;51.060;-0.086;2022-12-16T15:12:59;33;33;
57884;PMS5003;43703;51.060;-0.086;2022-12-16T15:15:25;40;34;
57884;PMS5003;43703;51.060;-0.086;2022-12-16T15:17:50;34;32;
57884;PMS5003;43703;51.060;-0.086;2022-12-16T15:20:16;32;32;
57884;PMS5003;43703;51.060;-0.086;2022-12-16T15:22:42;36;34;
57884;PMS5003;43703;51.060;-0.086;2022-12-16T15:27:33;40;34;
57884;PMS5003;43703;51.060;-0.086;2022-12-16T15:29:57;31;29;
57884;PMS5003;43703;51.060;-0.086;2022-12-16T15:32:27;40;39;
57884;PMS5003;43703;51.060;-0.086;2022-12-16T15:34:48;39;35;
57884;PMS5003;43703;51.060;-0.086;2022-12-16T15:37:15;28;28;
57884;PMS5003;43703;51.060;-0.086;2022-12-16T15:39:40;30;30;
57884;PMS5003;43703;51.060;-0.086;2022-12-16T15:42:15;31;29;
57884;PMS5003;43703;51.060;-0.086;2022-12-16T15:44:30;35;31;
57884;PMS5003;43703;51.060;-0.086;2022-12-16T15:46:56;34;33;
57884;PMS5003;43703;51.060;-0.086;2022-12-16T15:49:22;33;31;
57884;PMS5003;43703;51.060;-0.086;2022-12-16T15:51:48;31;30;
57884;PMS5003;43703;51.060;-0.086;2022-12-16T15:54:15;33;30;
57884;PMS5003;43703;51.060;-0.086;2022-12-16T15:56:40;32;30;
57884;PMS5003;43703;51.060;-0.086;2022-12-16T16:01:37;36;32;
57884;PMS5003;43703;51.060;-0.086;2022-12-16T16:03:54;40;36;
57884;PMS5003;43703;51.060;-0.086;2022-12-16T16:06:21;32;32;
57884;PMS5003;43703;51.060;-0.086;2022-12-16T16:08:48;39;37;
57884;PMS5003;43703;51.060;-0.086;2022-12-16T16:11:10;39;34;
57884;PMS5003;43703;51.060;-0.086;2022-12-16T16:13:36;43;40;
57884;PMS5003;43703;51.060;-0.086;2022-12-16T16:16:01;45;41;
57884;PMS5003;43703;51.060;-0.086;2022-12-16T16:18:27;52;44;
57884;PMS5003;43703;51.060;-0.086;2022-12-16T16:20:52;41;39;
57884;PMS5003;43703;51.060;-0.086;2022-12-16T16:23:18;50;46;
57884;PMS5003;43703;51.060;-0.086;2022-12-16T16:25:43;45;42;
57884;PMS5003;43703;51.060;-0.086;2022-12-16T16:28:09;47;44;
57884;PMS5003;43703;51.060;-0.086;2022-12-16T16:30:34;45;44;
57884;PMS5003;43703;51.060;-0.086;2022-12-16T16:32:59;45;43;